Time;durP1;ratioP1;P1;durP2;ratioP2;P2;SDS_P1;SDS_P2;PMS_P1;PMS_P2;Temp;Humidity;BMP_temperature;BMP_pressure;BME280_temperature;BME280_humidity;BME280_pressure;Samples;Min_cycle;Max_cycle;Signal;HPM_P1;HPM_P2
2022/04/19 00:00:15;;;;;;;4.82;2.25;;;;;;;;;;6266199;28;20052;-80
2022/04/19 00:03:17;;;;;;;2.58;2.08;;;;;;;;;;6279248;28;20133;-81
2022/04/19 00:06:19;;;;;;;3.85;2.30;;;;;;;;;;6292574;28;20044;-81
2022/04/19 00:09:20;;;;;;;3.40;2.20;;;;;;;;;;6288261;28;20072;-81
2022/04/19 00:12:22;;;;;;;2.75;2.20;;;;;;;;;;6288218;28;20127;-80
2022/04/19 00:15:28;;;;;;;3.03;2.15;;;;;;;;;;6290507;28;20236;-81
2022/04/19 00:18:31;;;;;;;4.50;2.17;;;;;;;;;;6292722;28;20182;-80
2022/04/19 00:21:33;;;;;;;3.50;2.22;;;;;;;;;;6289268;28;20048;-81
2022/04/19 00:24:35;;;;;;;4.20;2.00;;;;;;;;;;6289809;28;20049;-80
2022/04/19 00:27:36;;;;;;;3.65;2.05;;;;;;;;;;6292141;28;20098;-81
2022/04/19 00:30:38;;;;;;;3.45;2.13;;;;;;;;;;6287101;28;20036;-80
2022/04/19 00:33:44;;;;;;;3.60;2.15;;;;;;;;;;6291871;28;20052;-80
2022/04/19 00:36:46;;;;;;;4.60;2.45;;;;;;;;;;6291107;28;20059;-81
2022/04/19 00:39:47;;;;;;;5.05;2.70;;;;;;;;;;6287139;28;20121;-80
2022/04/19 00:42:49;;;;;;;2.42;1.88;;;;;;;;;;6285165;28;20052;-81
2022/04/19 00:45:51;;;;;;;2.75;2.00;;;;;;;;;;6288643;28;20056;-81
2022/04/19 00:48:53;;;;;;;3.70;2.05;;;;;;;;;;6290228;28;20113;-81
2022/04/19 00:51:56;;;;;;;;;;;;;;;;;;6263720;28;20041;-80
2022/04/19 00:55:01;;;;;;;2.87;2.37;;;;;;;;;;6283950;28;20365;-80
2022/04/19 00:58:06;;;;;;;3.08;2.13;;;;;;;;;;6267868;28;20045;-80
2022/04/19 01:01:08;;;;;;;2.53;2.20;;;;;;;;;;6310879;28;20588;-80
2022/04/19 01:04:10;;;;;;;4.63;2.40;;;;;;;;;;6308705;28;20049;-79
2022/04/19 01:07:12;;;;;;;3.17;2.22;;;;;;;;;;6287494;28;20063;-81
2022/04/19 01:10:17;;;;;;;3.72;2.67;;;;;;;;;;6290315;28;20120;-81
2022/04/19 01:13:18;;;;;;;2.83;2.30;;;;;;;;;;6308585;28;20074;-80
2022/04/19 01:16:27;;;;;;;3.42;2.55;;;;;;;;;;6309094;28;20405;-80
2022/04/19 01:19:29;;;;;;;3.15;2.20;;;;;;;;;;6292702;28;20166;-80
2022/04/19 01:22:35;;;;;;;2.88;2.20;;;;;;;;;;6291404;28;20045;-79
2022/04/19 01:25:36;;;;;;;7.65;2.75;;;;;;;;;;6293998;28;20040;-79
2022/04/19 01:28:39;;;;;;;3.92;2.67;;;;;;;;;;6325652;28;20037;-80
2022/04/19 01:31:43;;;;;;;4.95;2.50;;;;;;;;;;6292424;28;20840;-80
2022/04/19 01:34:44;;;;;;;4.88;2.08;;;;;;;;;;6284040;28;20049;-80
2022/04/19 01:37:53;;;;;;;4.53;2.38;;;;;;;;;;6298151;28;20118;-80
2022/04/19 01:41:05;;;;;;;3.35;2.35;;;;;;;;;;6284734;28;20568;-80
2022/04/19 01:44:22;;;;;;;5.03;2.47;;;;;;;;;;6282457;28;20052;-79
2022/04/19 01:47:25;;;;;;;4.90;2.38;;;;;;;;;;6281520;28;20047;-79
2022/04/19 01:50:28;;;;;;;2.58;2.15;;;;;;;;;;6290314;28;20067;-80
2022/04/19 01:53:31;;;;;;;4.88;2.47;;;;;;;;;;6290921;28;20044;-79
2022/04/19 01:56:33;;;;;;;2.70;2.05;;;;;;;;;;6272948;28;20049;-78
2022/04/19 01:59:49;;;;;;;3.05;2.20;;;;;;;;;;6265909;28;20179;-81
2022/04/19 02:02:59;;;;;;;3.97;2.55;;;;;;;;;;6262669;28;20485;-79
2022/04/19 02:06:05;;;;;;;2.35;2.05;;;;;;;;;;6266932;28;20124;-80
2022/04/19 02:09:09;;;;;;;2.65;2.20;;;;;;;;;;6266283;28;20055;-80
2022/04/19 02:12:11;;;;;;;3.53;2.58;;;;;;;;;;6273676;28;20064;-81
2022/04/19 02:15:35;;;;;;;2.78;2.05;;;;;;;;;;6286477;28;20045;-78
2022/04/19 02:18:52;;;;;;;5.97;2.38;;;;;;;;;;6266411;28;20045;-81
2022/04/19 02:21:54;;;;;;;5.32;2.53;;;;;;;;;;6317348;28;20040;-80
2022/04/19 02:24:58;;;;;;;3.85;2.50;;;;;;;;;;6289166;28;20044;-81
2022/04/19 02:28:00;;;;;;;2.85;2.30;;;;;;;;;;6264638;28;20619;-79
2022/04/19 02:31:08;;;;;;;3.53;2.38;;;;;;;;;;6263618;28;20090;-79
2022/04/19 02:34:18;;;;;;;2.53;2.17;;;;;;;;;;6281221;28;20402;-78
2022/04/19 02:37:20;;;;;;;5.18;2.53;;;;;;;;;;6281351;28;20143;-79
2022/04/19 02:40:24;;;;;;;4.32;2.63;;;;;;;;;;6295969;28;20550;-78
2022/04/19 02:43:30;;;;;;;2.58;2.05;;;;;;;;;;6296298;28;20041;-80
2022/04/19 02:46:33;;;;;;;3.55;2.13;;;;;;;;;;6312762;28;20047;-81
2022/04/19 02:49:37;;;;;;;3.30;2.40;;;;;;;;;;6289252;28;20102;-80
2022/04/19 02:52:39;;;;;;;3.50;2.50;;;;;;;;;;6289826;28;20497;-80
2022/04/19 02:55:41;;;;;;;3.17;2.20;;;;;;;;;;6281266;28;20052;-80
2022/04/19 02:58:44;;;;;;;4.28;2.60;;;;;;;;;;6265790;28;20041;-80
2022/04/19 03:01:46;;;;;;;3.70;2.40;;;;;;;;;;6271482;28;20047;-81
2022/04/19 03:04:48;;;;;;;3.97;2.58;;;;;;;;;;6257593;28;20060;-81
2022/04/19 03:07:50;;;;;;;3.58;2.25;;;;;;;;;;6256377;28;20059;-80
2022/04/19 03:10:51;;;;;;;2.95;2.38;;;;;;;;;;6240988;28;20052;-82
2022/04/19 03:13:54;;;;;;;3.42;2.38;;;;;;;;;;6278712;28;20045;-80
2022/04/19 03:16:56;;;;;;;3.35;2.50;;;;;;;;;;6297697;27;20048;-80
2022/04/19 03:19:58;;;;;;;2.95;2.10;;;;;;;;;;6287490;28;20404;-81
2022/04/19 03:29:52;;;;;;;4.45;2.40;;;;;;;;;;6303099;28;20890;-80
2022/04/19 03:32:54;;;;;;;3.63;2.50;;;;;;;;;;6279225;28;20408;-81
2022/04/19 03:35:56;;;;;;;3.60;2.20;;;;;;;;;;6279850;28;20060;-81
2022/04/19 03:38:58;;;;;;;5.25;2.90;;;;;;;;;;6282032;28;20068;-81
2022/04/19 03:42:00;;;;;;;4.43;2.90;;;;;;;;;;6280791;28;20044;-81
2022/04/19 03:45:02;;;;;;;4.63;2.70;;;;;;;;;;6287394;28;20124;-80
2022/04/19 03:48:05;;;;;;;4.68;2.35;;;;;;;;;;6268070;28;20040;-80
2022/04/19 03:51:08;;;;;;;4.45;2.42;;;;;;;;;;6282786;28;20044;-81
2022/04/19 03:54:10;;;;;;;4.68;2.63;;;;;;;;;;6284164;28;20115;-80
2022/04/19 03:57:12;;;;;;;4.15;2.30;;;;;;;;;;6284382;28;20399;-80
2022/04/19 04:00:15;;;;;;;3.90;2.40;;;;;;;;;;6283440;28;20041;-79
2022/04/19 04:03:18;;;;;;;5.97;2.60;;;;;;;;;;6289257;28;20062;-81
2022/04/19 04:06:20;;;;;;;5.13;3.20;;;;;;;;;;6300168;27;20301;-80
2022/04/19 04:09:22;;;;;;;4.35;3.38;;;;;;;;;;6297974;28;20100;-81
2022/04/19 04:12:26;;;;;;;4.25;2.80;;;;;;;;;;6264468;28;20041;-80
2022/04/19 04:15:28;;;;;;;3.95;2.70;;;;;;;;;;6274427;28;20047;-79
2022/04/19 04:18:30;;;;;;;8.90;4.53;;;;;;;;;;6265212;28;20517;-80
2022/04/19 04:21:33;;;;;;;7.88;4.05;;;;;;;;;;6294869;28;20048;-80
2022/04/19 04:24:34;;;;;;;5.35;3.15;;;;;;;;;;6283830;28;20052;-80
2022/04/19 04:27:36;;;;;;;4.88;3.20;;;;;;;;;;6281604;28;20040;-79
2022/04/19 04:30:38;;;;;;;4.93;3.38;;;;;;;;;;6296090;27;20045;-79
2022/04/19 04:33:39;;;;;;;5.07;3.20;;;;;;;;;;6283647;28;20040;-80
2022/04/19 04:36:42;;;;;;;3.83;3.22;;;;;;;;;;6298831;27;20385;-80
2022/04/19 04:39:48;;;;;;;4.68;3.30;;;;;;;;;;6277332;28;20040;-83
2022/04/19 04:43:15;;;;;;;4.20;3.20;;;;;;;;;;6258892;28;20056;-81
2022/04/19 04:49:39;;;;;;;4.28;3.25;;;;;;;;;;6290975;28;20055;-81
2022/04/19 04:52:45;;;;;;;3.22;2.53;;;;;;;;;;6288521;28;20213;-82
2022/04/19 04:55:47;;;;;;;4.67;3.13;;;;;;;;;;6279705;28;20056;-79
2022/04/19 04:58:57;;;;;;;4.90;3.60;;;;;;;;;;6270124;28;20150;-78
2022/04/19 05:02:03;;;;;;;5.50;2.88;;;;;;;;;;6284865;28;20091;-79
2022/04/19 05:05:05;;;;;;;;;;;;;;;;;;6268979;28;20068;-78
2022/04/19 05:08:10;;;;;;;4.05;2.47;;;;;;;;;;6265398;28;19920;-79
2022/04/19 05:11:12;;;;;;;7.25;3.20;;;;;;;;;;6266695;28;20107;-80
2022/04/19 05:14:14;;;;;;;5.65;3.75;;;;;;;;;;6262415;28;20104;-79
2022/04/19 05:17:16;;;;;;;6.40;3.28;;;;;;;;;;6297527;27;20561;-79
2022/04/19 05:20:18;;;;;;;3.72;2.90;;;;;;;;;;6308258;27;20044;-79
2022/04/19 05:23:21;;;;;;;6.38;3.28;;;;;;;;;;6290604;28;20051;-78
2022/04/19 05:26:27;;;;;;;3.85;3.17;;;;;;;;;;6278735;28;20138;-78
2022/04/19 05:29:30;;;;;;;6.43;3.42;;;;;;;;;;6277439;28;20045;-79
2022/04/19 05:32:32;;;;;;;5.65;2.97;;;;;;;;;;6257776;28;20534;-78
2022/04/19 05:35:40;;;;;;;6.07;3.13;;;;;;;;;;6256846;28;20090;-79
2022/04/19 05:38:42;;;;;;;3.72;3.10;;;;;;;;;;6263314;28;20124;-79
2022/04/19 05:41:45;;;;;;;;;;;;;;;;;;6276743;28;20175;-79
2022/04/19 05:44:47;;;;;;;5.82;3.17;;;;;;;;;;6281307;28;19924;-78
2022/04/19 05:47:49;;;;;;;5.00;3.33;;;;;;;;;;6318162;28;20036;-79
2022/04/19 05:50:51;;;;;;;4.80;3.28;;;;;;;;;;6285039;28;20036;-78
2022/04/19 05:53:53;;;;;;;4.82;3.17;;;;;;;;;;6276369;28;20049;-78
2022/04/19 05:56:55;;;;;;;4.88;3.50;;;;;;;;;;6262783;28;20161;-78
2022/04/19 05:59:57;;;;;;;5.30;3.80;;;;;;;;;;6276759;28;20037;-78
2022/04/19 06:06:20;;;;;;;4.78;3.50;;;;;;;;;;6262024;28;20041;-80
2022/04/19 06:09:25;;;;;;;6.63;3.55;;;;;;;;;;6280542;28;20044;-78
2022/04/19 06:12:27;;;;;;;5.95;3.75;;;;;;;;;;6288037;28;20047;-78
2022/04/19 06:15:31;;;;;;;5.47;3.20;;;;;;;;;;6255304;28;20119;-79
2022/04/19 06:18:34;;;;;;;4.80;3.75;;;;;;;;;;6253011;28;20049;-79
2022/04/19 06:21:43;;;;;;;7.38;3.50;;;;;;;;;;6255317;28;20041;-78
2022/04/19 06:24:44;;;;;;;6.70;3.50;;;;;;;;;;6281096;28;20124;-77
2022/04/19 06:27:46;;;;;;;5.90;2.97;;;;;;;;;;6281292;28;20359;-79
2022/04/19 06:30:48;;;;;;;7.20;3.75;;;;;;;;;;6279685;28;20426;-79
2022/04/19 06:33:50;;;;;;;6.47;3.75;;;;;;;;;;6280500;28;20305;-78
2022/04/19 06:36:55;;;;;;;4.22;3.30;;;;;;;;;;6259694;28;20121;-78
2022/04/19 06:40:01;;;;;;;5.45;3.13;;;;;;;;;;6272419;28;20406;-79
2022/04/19 06:43:03;;;;;;;7.68;3.58;;;;;;;;;;6260737;28;20501;-80
2022/04/19 06:46:25;;;;;;;5.80;3.92;;;;;;;;;;6269934;28;20044;-78
2022/04/19 06:49:38;;;;;;;5.35;3.50;;;;;;;;;;6284733;28;20049;-77
2022/04/19 06:52:39;;;;;;;8.48;3.40;;;;;;;;;;6282466;28;20179;-78
2022/04/19 06:56:01;;;;;;;5.55;3.70;;;;;;;;;;6287004;28;20064;-79
2022/04/19 06:59:04;;;;;;;5.57;3.55;;;;;;;;;;6290311;28;20736;-78
2022/04/19 07:02:11;;;;;;;6.70;3.83;;;;;;;;;;6278227;28;20140;-78
2022/04/19 07:05:21;;;;;;;23.33;14.80;;;;;;;;;;6261367;28;20386;-79
2022/04/19 07:08:26;;;;;;;7.55;4.40;;;;;;;;;;6276433;28;20060;-78
2022/04/19 07:11:27;;;;;;;4.82;3.40;;;;;;;;;;6274549;28;20048;-78
2022/04/19 07:14:50;;;;;;;8.13;4.13;;;;;;;;;;6288302;28;20454;-78
2022/04/19 07:18:22;;;;;;;13.90;9.18;;;;;;;;;;6259587;28;20128;-79
2022/04/19 07:28:36;;;;;;;6.35;3.90;;;;;;;;;;6280196;28;20044;-79
2022/04/19 07:31:43;;;;;;;5.78;3.80;;;;;;;;;;6247271;28;20038;-79
2022/04/19 07:35:00;;;;;;;4.70;3.60;;;;;;;;;;6239035;28;20050;-79
2022/04/19 07:38:02;;;;;;;4.85;2.90;;;;;;;;;;6277757;28;20045;-78
2022/04/19 07:41:17;;;;;;;4.40;3.30;;;;;;;;;;6292229;28;20045;-77
2022/04/19 07:44:19;;;;;;;5.65;3.17;;;;;;;;;;6256736;28;20052;-78
2022/04/19 07:47:21;;;;;;;4.75;3.25;;;;;;;;;;6290127;28;20041;-78
2022/04/19 07:50:23;;;;;;;6.72;3.13;;;;;;;;;;6287142;28;20170;-78
2022/04/19 07:53:24;;;;;;;7.15;3.22;;;;;;;;;;6286619;28;20044;-78
2022/04/19 07:56:29;;;;;;;5.97;3.72;;;;;;;;;;6239454;28;20073;-78
2022/04/19 07:59:30;;;;;;;4.55;3.45;;;;;;;;;;6255170;28;20045;-79
2022/04/19 08:02:32;;;;;;;7.30;3.38;;;;;;;;;;6254591;28;20315;-78
2022/04/19 08:05:34;;;;;;;4.70;3.22;;;;;;;;;;6239000;28;20050;-78
2022/04/19 08:08:37;;;;;;;6.55;3.35;;;;;;;;;;6237643;28;20049;-79
2022/04/19 08:11:38;;;;;;;5.47;3.80;;;;;;;;;;6254142;28;20383;-79
2022/04/19 08:14:43;;;;;;;6.53;4.00;;;;;;;;;;6254125;28;20045;-80
2022/04/19 08:17:46;;;;;;;6.13;4.00;;;;;;;;;;6235346;28;20127;-78
2022/04/19 08:20:51;;;;;;;5.07;3.53;;;;;;;;;;6244952;28;20045;-78
2022/04/19 08:23:53;;;;;;;5.53;3.50;;;;;;;;;;6255827;28;20130;-78
2022/04/19 08:26:55;;;;;;;7.75;3.35;;;;;;;;;;6252562;28;20041;-78
2022/04/19 08:29:57;;;;;;;6.03;3.70;;;;;;;;;;6234329;28;20091;-77
2022/04/19 08:32:59;;;;;;;7.60;3.92;;;;;;;;;;6237861;28;20403;-78
2022/04/19 08:36:01;;;;;;;6.20;3.75;;;;;;;;;;6240860;28;20120;-79
2022/04/19 08:39:03;;;;;;;6.28;4.13;;;;;;;;;;6238149;28;20069;-79
2022/04/19 08:42:06;;;;;;;6.35;3.60;;;;;;;;;;6278405;28;20048;-79
2022/04/19 08:45:10;;;;;;;5.82;3.83;;;;;;;;;;6280150;28;20071;-79
2022/04/19 08:48:15;;;;;;;7.35;4.05;;;;;;;;;;6290093;28;20121;-78
2022/04/19 08:51:20;;;;;;;6.95;4.20;;;;;;;;;;6287171;28;20048;-79
2022/04/19 08:57:46;;;;;;;5.50;3.92;;;;;;;;;;6262534;28;20167;-78
2022/04/19 09:00:48;;;;;;;7.75;4.10;;;;;;;;;;6263752;28;20493;-79
2022/04/19 09:03:51;;;;;;;8.93;4.40;;;;;;;;;;6261905;28;20502;-78
2022/04/19 09:06:55;;;;;;;7.47;3.83;;;;;;;;;;6259823;28;20049;-80
2022/04/19 09:09:59;;;;;;;6.78;4.00;;;;;;;;;;6271493;28;20037;-77
2022/04/19 09:13:03;;;;;;;7.25;4.60;;;;;;;;;;6281663;28;20040;-78
2022/04/19 09:16:06;;;;;;;7.18;4.45;;;;;;;;;;6270284;28;20126;-78
2022/04/19 09:19:08;;;;;;;6.45;4.50;;;;;;;;;;6257934;28;20221;-77
2022/04/19 09:22:10;;;;;;;6.30;4.63;;;;;;;;;;6295610;27;20075;-76
2022/04/19 09:25:25;;;;;;;5.65;4.15;;;;;;;;;;6298451;28;20502;-79
2022/04/19 09:28:28;;;;;;;6.43;4.68;;;;;;;;;;6263418;28;20094;-79
2022/04/19 09:31:30;;;;;;;6.50;4.25;;;;;;;;;;6261449;28;20452;-77
2022/04/19 09:34:37;;;;;;;;;;;;;;;;;;6262969;28;20057;-77
2022/04/19 09:37:47;;;;;;;7.75;4.88;;;;;;;;;;6262635;28;19968;-77
2022/04/19 09:40:48;;;;;;;7.70;4.63;;;;;;;;;;6263245;28;20051;-78
2022/04/19 09:44:15;;;;;;;7.43;4.97;;;;;;;;;;6265358;28;20049;-78
2022/04/19 09:47:17;;;;;;;5.82;4.50;;;;;;;;;;6277467;28;20094;-77
2022/04/19 09:50:19;;;;;;;6.43;4.93;;;;;;;;;;6286275;28;20049;-78
2022/04/19 09:53:23;;;;;;;6.50;4.72;;;;;;;;;;6285232;28;20493;-77
2022/04/19 09:56:33;;;;;;;7.05;4.88;;;;;;;;;;6276333;28;20136;-78
2022/04/19 09:59:47;;;;;;;6.55;4.30;;;;;;;;;;6261246;28;20041;-77
2022/04/19 10:09:35;;;;;;;6.32;4.07;;;;;;;;;;6261243;28;20532;-78
2022/04/19 10:12:37;;;;;;;8.25;4.32;;;;;;;;;;6261420;28;20072;-77
2022/04/19 10:15:42;;;;;;;4.93;3.33;;;;;;;;;;6261064;28;20171;-77
2022/04/19 10:18:45;;;;;;;6.82;4.00;;;;;;;;;;6264099;28;20047;-78
2022/04/19 10:21:48;;;;;;;6.70;3.85;;;;;;;;;;6284517;28;20470;-77
2022/04/19 10:24:52;;;;;;;4.72;2.97;;;;;;;;;;6271647;28;20124;-78
2022/04/19 10:28:04;;;;;;;4.50;2.90;;;;;;;;;;6276841;28;20502;-79
2022/04/19 10:31:06;;;;;;;4.80;2.83;;;;;;;;;;6263704;28;20084;-79
2022/04/19 10:34:07;;;;;;;3.40;2.50;;;;;;;;;;6262206;28;20060;-78
2022/04/19 10:37:12;;;;;;;4.00;2.53;;;;;;;;;;6278472;28;20139;-80
2022/04/19 10:40:14;;;;;;;3.45;2.35;;;;;;;;;;6276222;28;20084;-78
2022/04/19 10:43:16;;;;;;;;;;;;;;;;;;6263530;28;20635;-79
2022/04/19 10:46:19;;;;;;;5.28;2.92;;;;;;;;;;6272344;28;19920;-78
2022/04/19 10:49:25;;;;;;;4.55;2.60;;;;;;;;;;6290667;28;20045;-78
2022/04/19 10:52:46;;;;;;;2.70;2.05;;;;;;;;;;6289255;28;20064;-79
2022/04/19 10:55:53;;;;;;;2.88;2.33;;;;;;;;;;6277604;28;20242;-79
2022/04/19 10:58:55;;;;;;;2.90;2.17;;;;;;;;;;6265814;28;20083;-79
2022/04/19 11:01:57;;;;;;;2.65;1.90;;;;;;;;;;6278236;28;20061;-79
2022/04/19 11:04:58;;;;;;;3.07;2.53;;;;;;;;;;6263994;28;20052;-78
2022/04/19 11:08:20;;;;;;;3.28;2.42;;;;;;;;;;6263744;28;20045;-79
2022/04/19 11:11:22;;;;;;;2.47;2.00;;;;;;;;;;6261990;28;20163;-78
2022/04/19 11:14:44;;;;;;;4.47;2.53;;;;;;;;;;6264062;28;20052;-79
2022/04/19 11:17:46;;;;;;;3.17;2.20;;;;;;;;;;6265429;28;20549;-79
2022/04/19 11:20:49;;;;;;;2.78;2.03;;;;;;;;;;6273778;28;20516;-79
2022/04/19 11:23:51;;;;;;;3.47;2.20;;;;;;;;;;6290240;28;20108;-77
2022/04/19 11:26:52;;;;;;;2.28;2.08;;;;;;;;;;6288638;28;20536;-80
2022/04/19 11:29:54;;;;;;;4.28;2.40;;;;;;;;;;6288538;28;20052;-79
2022/04/19 11:32:58;;;;;;;2.78;2.25;;;;;;;;;;6270684;28;20048;-79
2022/04/19 11:36:04;;;;;;;3.00;2.70;;;;;;;;;;6240040;28;20046;-78
2022/04/19 11:39:06;;;;;;;3.00;2.63;;;;;;;;;;6238575;28;20669;-78
2022/04/19 11:48:51;;;;;;;2.65;2.10;;;;;;;;;;6261403;28;20051;-77
2022/04/19 11:52:01;;;;;;;5.28;4.53;;;;;;;;;;6258139;28;20056;-79
2022/04/19 11:55:03;;;;;;;2.35;1.65;;;;;;;;;;6244459;28;20118;-77
2022/04/19 11:58:08;;;;;;;3.90;2.20;;;;;;;;;;6251575;28;20184;-79
2022/04/19 12:01:10;;;;;;;2.83;2.40;;;;;;;;;;6238983;28;20136;-79
2022/04/19 12:04:13;;;;;;;3.15;2.65;;;;;;;;;;6243668;28;20041;-79
2022/04/19 12:07:16;;;;;;;6.93;3.75;;;;;;;;;;6239755;28;20049;-79
2022/04/19 12:10:18;;;;;;;3.00;2.25;;;;;;;;;;6238017;28;20129;-79
2022/04/19 12:13:19;;;;;;;3.58;2.47;;;;;;;;;;6236694;28;20052;-78
2022/04/19 12:16:36;;;;;;;3.30;2.40;;;;;;;;;;6260835;28;20037;-79
2022/04/19 12:19:40;;;;;;;2.95;2.42;;;;;;;;;;6289084;28;20052;-79
2022/04/19 12:22:47;;;;;;;4.28;2.90;;;;;;;;;;6286007;28;20782;-79
2022/04/19 12:26:06;;;;;;;3.20;2.50;;;;;;;;;;6273312;28;20456;-79
2022/04/19 12:29:12;;;;;;;3.08;2.50;;;;;;;;;;6286548;28;20154;-79
2022/04/19 12:32:13;;;;;;;2.80;2.40;;;;;;;;;;6283769;28;20070;-79
2022/04/19 12:35:16;;;;;;;2.40;1.77;;;;;;;;;;6285372;28;20131;-78
2022/04/19 12:38:18;;;;;;;2.00;1.80;;;;;;;;;;6285550;28;20055;-78
2022/04/19 12:41:20;;;;;;;2.17;1.65;;;;;;;;;;6262622;28;20052;-79
2022/04/19 12:44:21;;;;;;;2.22;1.90;;;;;;;;;;6262579;28;20123;-79
2022/04/19 12:47:25;;;;;;;1.85;1.65;;;;;;;;;;6278519;28;20117;-79
2022/04/19 12:50:27;;;;;;;2.25;1.88;;;;;;;;;;6284566;28;20473;-80
2022/04/19 12:53:29;;;;;;;2.45;1.45;;;;;;;;;;6280403;28;20126;-78
2022/04/19 12:56:32;;;;;;;1.85;1.45;;;;;;;;;;6264729;28;20044;-78
2022/04/19 12:59:34;;;;;;;3.80;1.55;;;;;;;;;;6264928;28;20048;-80
2022/04/19 13:02:37;;;;;;;2.40;1.45;;;;;;;;;;6266924;28;20041;-79
2022/04/19 13:12:19;;;;;;;2.53;1.48;;;;;;;;;;6263674;28;20150;-77
2022/04/19 13:15:22;;;;;;;1.00;0.90;;;;;;;;;;6265196;28;20044;-79
2022/04/19 13:18:25;;;;;;;0.95;0.90;;;;;;;;;;6262194;28;20060;-78
2022/04/19 13:21:26;;;;;;;1.08;1.00;;;;;;;;;;6284575;28;20104;-79
2022/04/19 13:24:39;;;;;;;1.80;1.05;;;;;;;;;;6288878;28;20052;-80
2022/04/19 13:27:41;;;;;;;1.30;1.00;;;;;;;;;;6266933;28;20045;-78
2022/04/19 13:30:43;;;;;;;3.08;1.10;;;;;;;;;;6265228;28;20124;-78
2022/04/19 13:33:45;;;;;;;1.80;1.02;;;;;;;;;;6262854;28;20052;-79
2022/04/19 13:36:48;;;;;;;3.13;1.00;;;;;;;;;;6268147;28;20049;-79
2022/04/19 13:39:49;;;;;;;2.28;1.02;;;;;;;;;;6264288;28;20116;-80
2022/04/19 13:42:55;;;;;;;1.40;1.10;;;;;;;;;;6261711;28;20060;-79
2022/04/19 13:45:57;;;;;;;1.80;1.35;;;;;;;;;;6275885;28;20041;-76
2022/04/19 13:48:59;;;;;;;1.35;0.90;;;;;;;;;;6289282;28;20062;-78
2022/04/19 13:52:01;;;;;;;1.33;1.15;;;;;;;;;;6290126;28;20096;-79
2022/04/19 13:55:03;;;;;;;1.40;1.27;;;;;;;;;;6276152;28;20413;-79
2022/04/19 13:58:05;;;;;;;2.17;1.38;;;;;;;;;;6268102;28;20040;-78
2022/04/19 14:01:07;;;;;;;1.60;1.27;;;;;;;;;;6286653;28;20152;-78
2022/04/19 14:04:09;;;;;;;1.70;1.27;;;;;;;;;;6287179;28;20152;-78
2022/04/19 14:07:11;;;;;;;1.70;1.20;;;;;;;;;;6288342;28;20083;-80
2022/04/19 14:10:13;;;;;;;1.75;1.42;;;;;;;;;;6268972;28;20063;-79
2022/04/19 14:13:19;;;;;;;1.40;1.30;;;;;;;;;;6262873;28;20068;-80
2022/04/19 14:16:21;;;;;;;1.25;1.15;;;;;;;;;;6274339;28;20165;-80
2022/04/19 14:19:23;;;;;;;1.60;1.45;;;;;;;;;;6281658;28;20512;-80
2022/04/19 14:22:25;;;;;;;2.17;1.50;;;;;;;;;;6281903;28;20042;-80
2022/04/19 14:25:26;;;;;;;2.57;1.43;;;;;;;;;;6284503;28;20776;-79
2022/04/19 14:35:09;;;;;;;1.83;1.70;;;;;;;;;;6284881;28;20428;-80
2022/04/19 14:38:11;;;;;;;1.83;1.30;;;;;;;;;;6285302;28;20053;-81
2022/04/19 14:41:13;;;;;;;2.03;1.33;;;;;;;;;;6260687;28;20098;-79
2022/04/19 14:44:14;;;;;;;1.20;1.10;;;;;;;;;;6256795;28;20134;-79
2022/04/19 14:47:16;;;;;;;2.17;1.20;;;;;;;;;;6272984;28;20074;-79
2022/04/19 14:50:17;;;;;;;1.55;1.10;;;;;;;;;;6281880;28;20044;-79
2022/04/19 14:53:19;;;;;;;3.10;1.30;;;;;;;;;;6277715;28;20059;-79
2022/04/19 14:56:23;;;;;;;1.08;1.00;;;;;;;;;;6256423;28;20049;-79
2022/04/19 14:59:25;;;;;;;1.00;0.80;;;;;;;;;;6256376;28;20049;-79
2022/04/19 15:02:26;;;;;;;1.55;1.00;;;;;;;;;;6251149;28;20956;-78
2022/04/19 15:05:29;;;;;;;1.10;1.00;;;;;;;;;;6256781;28;20052;-79
2022/04/19 15:08:31;;;;;;;3.83;1.15;;;;;;;;;;6255995;28;20159;-79
2022/04/19 15:11:33;;;;;;;1.20;1.10;;;;;;;;;;6248769;28;20112;-79
2022/04/19 15:14:35;;;;;;;1.03;1.00;;;;;;;;;;6255374;28;20056;-79
2022/04/19 15:17:37;;;;;;;1.63;0.90;;;;;;;;;;6269359;28;20154;-78
2022/04/19 15:20:42;;;;;;;1.40;0.90;;;;;;;;;;6265516;28;20170;-78
2022/04/19 15:23:44;;;;;;;0.98;0.95;;;;;;;;;;6262361;28;20044;-78
2022/04/19 15:26:47;;;;;;;1.10;0.90;;;;;;;;;;6263621;28;20611;-78
2022/04/19 15:29:48;;;;;;;1.08;0.90;;;;;;;;;;6236066;28;20060;-77
2022/04/19 15:32:53;;;;;;;1.15;0.70;;;;;;;;;;6256966;28;20395;-79
2022/04/19 15:35:55;;;;;;;0.97;0.87;;;;;;;;;;6262370;28;20117;-78
2022/04/19 15:38:57;;;;;;;1.13;0.70;;;;;;;;;;6266854;28;20724;-78
2022/04/19 15:41:59;;;;;;;0.98;0.70;;;;;;;;;;6260627;28;20271;-78
2022/04/19 15:45:05;;;;;;;1.00;0.80;;;;;;;;;;6259986;28;20047;-78
2022/04/19 15:48:07;;;;;;;3.05;0.82;;;;;;;;;;6273191;28;20079;-78
2022/04/19 15:51:09;;;;;;;0.93;0.75;;;;;;;;;;6280990;28;20190;-79
2022/04/19 15:54:11;;;;;;;1.95;0.80;;;;;;;;;;6277613;28;20096;-78
2022/04/19 15:57:12;;;;;;;2.65;0.70;;;;;;;;;;6257652;28;20129;-78
2022/04/19 16:00:15;;;;;;;0.75;0.65;;;;;;;;;;6259129;28;20080;-78
2022/04/19 16:03:17;;;;;;;1.38;0.70;;;;;;;;;;6258551;28;20450;-77
2022/04/19 16:06:18;;;;;;;1.52;0.60;;;;;;;;;;6260685;28;20115;-78
2022/04/19 16:09:20;;;;;;;1.48;0.60;;;;;;;;;;6292800;28;20136;-79
2022/04/19 16:12:21;;;;;;;1.38;0.50;;;;;;;;;;6275995;28;20120;-79
2022/04/19 16:15:25;;;;;;;1.92;0.65;;;;;;;;;;6262152;28;20044;-79
2022/04/19 16:25:19;;;;;;;1.20;0.55;;;;;;;;;;6279644;28;20710;-80
2022/04/19 16:28:26;;;;;;;2.22;0.70;;;;;;;;;;6265527;28;20094;-80
2022/04/19 16:31:28;;;;;;;4.78;0.75;;;;;;;;;;6272175;28;20071;-79
2022/04/19 16:34:30;;;;;;;4.10;0.77;;;;;;;;;;6264274;28;20044;-80
2022/04/19 16:37:33;;;;;;;0.70;0.60;;;;;;;;;;6265931;28;20080;-78
2022/04/19 16:40:34;;;;;;;1.20;0.80;;;;;;;;;;6270291;28;20140;-79
2022/04/19 16:43:37;;;;;;;0.60;0.60;;;;;;;;;;6265735;28;20045;-79
2022/04/19 16:46:38;;;;;;;3.97;0.85;;;;;;;;;;6265454;28;20060;-79
2022/04/19 16:49:40;;;;;;;0.88;0.50;;;;;;;;;;6271521;28;20125;-79
2022/04/19 16:52:42;;;;;;;0.60;0.55;;;;;;;;;;6265393;28;20186;-79
2022/04/19 16:55:43;;;;;;;0.75;0.50;;;;;;;;;;6258837;28;20140;-78
2022/04/19 16:58:45;;;;;;;1.08;0.52;;;;;;;;;;6296890;28;20161;-79
2022/04/19 17:01:47;;;;;;;2.25;0.60;;;;;;;;;;6286338;28;20084;-78
2022/04/19 17:04:48;;;;;;;1.02;0.55;;;;;;;;;;6286681;28;20082;-79
2022/04/19 17:07:50;;;;;;;0.50;0.50;;;;;;;;;;6289677;28;20045;-79
2022/04/19 17:10:51;;;;;;;0.88;0.80;;;;;;;;;;6251132;28;20184;-78
2022/04/19 17:13:54;;;;;;;1.33;0.75;;;;;;;;;;6235499;28;20096;-76
2022/04/19 17:16:56;;;;;;;1.55;0.52;;;;;;;;;;6258989;28;20037;-78
2022/04/19 17:19:57;;;;;;;1.77;0.70;;;;;;;;;;6276048;28;20064;-80
2022/04/19 17:22:59;;;;;;;2.17;0.80;;;;;;;;;;6274244;28;20122;-79
2022/04/19 17:26:01;;;;;;;1.50;0.80;;;;;;;;;;6276853;28;20047;-79
2022/04/19 17:29:03;;;;;;;0.60;0.60;;;;;;;;;;6279264;28;20917;-79
2022/04/19 17:32:05;;;;;;;1.02;0.80;;;;;;;;;;6301443;28;20159;-79
2022/04/19 17:35:07;;;;;;;2.60;1.00;;;;;;;;;;6282372;28;20099;-79
2022/04/19 17:38:09;;;;;;;0.70;0.70;;;;;;;;;;6242680;28;20051;-79
2022/04/19 17:41:11;;;;;;;2.13;0.90;;;;;;;;;;6279442;28;20129;-80
2022/04/19 17:44:13;;;;;;;2.20;1.00;;;;;;;;;;6283995;28;20052;-79
2022/04/19 17:47:15;;;;;;;1.50;0.82;;;;;;;;;;6278178;28;20082;-77
2022/04/19 17:57:00;;;;;;;2.35;1.05;;;;;;;;;;6288952;28;20048;-78
2022/04/19 18:00:03;;;;;;;1.55;0.80;;;;;;;;;;6288864;28;20048;-79
2022/04/19 18:03:04;;;;;;;1.52;0.70;;;;;;;;;;6287617;28;20135;-80
2022/04/19 18:06:08;;;;;;;1.73;0.90;;;;;;;;;;6291718;28;20082;-80
2022/04/19 18:09:09;;;;;;;0.95;0.85;;;;;;;;;;6291673;28;20051;-78
2022/04/19 18:12:11;;;;;;;1.00;0.90;;;;;;;;;;6270333;28;20110;-79
2022/04/19 18:15:18;;;;;;;2.00;1.00;;;;;;;;;;6265530;28;20132;-78
2022/04/19 18:18:21;;;;;;;1.95;0.95;;;;;;;;;;6282144;28;20199;-79
2022/04/19 18:21:22;;;;;;;1.77;1.17;;;;;;;;;;6278271;28;20048;-79
2022/04/19 18:27:45;;;;;;;2.42;1.75;;;;;;;;;;6263898;28;20048;-79
2022/04/19 18:30:48;;;;;;;4.30;1.90;;;;;;;;;;6254354;28;20067;-79
2022/04/19 18:33:51;;;;;;;3.78;2.20;;;;;;;;;;6241168;28;20350;-79
2022/04/19 18:36:54;;;;;;;5.28;3.40;;;;;;;;;;6242009;28;20042;-79
2022/04/19 18:39:55;;;;;;;5.47;3.00;;;;;;;;;;6242157;28;20053;-78
2022/04/19 18:42:58;;;;;;;3.72;2.03;;;;;;;;;;6239916;28;20045;-78
2022/04/19 18:46:04;;;;;;;2.55;1.95;;;;;;;;;;6241773;28;20041;-78
2022/04/19 18:49:09;;;;;;;2.30;2.10;;;;;;;;;;6265011;28;20056;-79
2022/04/19 18:52:11;;;;;;;6.13;2.10;;;;;;;;;;6262531;28;20059;-79
2022/04/19 18:55:20;;;;;;;3.53;1.50;;;;;;;;;;6328875;27;20086;-78
2022/04/19 18:58:21;;;;;;;3.45;2.25;;;;;;;;;;6314574;28;20082;-78
2022/04/19 19:01:23;;;;;;;3.10;1.70;;;;;;;;;;6267336;28;20048;-79
2022/04/19 19:04:26;;;;;;;4.07;1.80;;;;;;;;;;6266202;28;20044;-78
2022/04/19 19:07:28;;;;;;;2.92;1.90;;;;;;;;;;6265450;28;20151;-80
2022/04/19 19:10:29;;;;;;;4.72;1.83;;;;;;;;;;6264879;28;20367;-78
2022/04/19 19:13:32;;;;;;;4.07;1.52;;;;;;;;;;6264799;28;20053;-78
2022/04/19 19:16:34;;;;;;;1.43;1.20;;;;;;;;;;6264721;28;20041;-79
2022/04/19 19:19:35;;;;;;;2.03;1.30;;;;;;;;;;6262445;28;20090;-79
2022/04/19 19:22:37;;;;;;;1.33;1.23;;;;;;;;;;6288384;28;20196;-78
2022/04/19 19:25:39;;;;;;;2.78;1.40;;;;;;;;;;6275018;28;20146;-79
2022/04/19 19:28:41;;;;;;;4.05;2.47;;;;;;;;;;6264285;28;20098;-79
2022/04/19 19:31:42;;;;;;;3.17;2.10;;;;;;;;;;6275175;28;20121;-80